createdAt,value
2022-11-27T00:00:05.277Z,2.97
2022-11-27T00:02:43.792Z,3.40
2022-11-27T00:05:18.007Z,3.70
2022-11-27T00:07:48.812Z,3.70
2022-11-27T00:10:19.701Z,3.25
2022-11-27T00:12:50.877Z,3.53
2022-11-27T00:15:22.124Z,3.35
2022-11-27T00:17:52.945Z,2.97
2022-11-27T00:20:29.677Z,3.13
2022-11-27T00:23:01.025Z,3.55
2022-11-27T00:25:31.899Z,3.17
2022-11-27T00:28:02.784Z,2.90
2022-11-27T00:30:33.596Z,2.53
2022-11-27T00:33:04.325Z,2.78
2022-11-27T00:35:38.369Z,3.08
2022-11-27T00:38:09.344Z,3.00
2022-11-27T00:40:40.555Z,2.60
2022-11-27T00:43:11.327Z,2.42
2022-11-27T00:45:42.045Z,3.13
2022-11-27T00:48:13.047Z,2.65
2022-11-27T00:50:46.379Z,3.00
2022-11-27T00:53:17.673Z,2.60
2022-11-27T00:55:50.343Z,2.80
2022-11-27T00:58:21.160Z,2.78
2022-11-27T01:00:59.098Z,2.30
2022-11-27T01:03:30.963Z,3.28
2022-11-27T01:06:06.648Z,2.88
2022-11-27T01:08:38.159Z,2.35
2022-11-27T01:11:09.571Z,2.92
2022-11-27T01:13:40.570Z,3.13
2022-11-27T01:16:14.234Z,3.30
2022-11-27T01:18:46.669Z,2.75
2022-11-27T01:21:22.602Z,2.83
2022-11-27T01:23:53.703Z,3.47
2022-11-27T01:26:25.257Z,2.20
2022-11-27T01:28:56.794Z,2.70
2022-11-27T01:31:30.840Z,3.20
2022-11-27T01:34:04.933Z,2.25
2022-11-27T01:36:39.547Z,2.80
2022-11-27T01:39:10.691Z,3.58
2022-11-27T01:41:42.754Z,2.53
2022-11-27T01:44:43.251Z,2.42
2022-11-27T01:47:18.494Z,2.88
2022-11-27T01:49:53.520Z,2.95
2022-11-27T01:52:31.727Z,2.55
2022-11-27T01:55:08.788Z,3.10
2022-11-27T01:57:44.519Z,2.78
2022-11-27T02:00:18.767Z,3.13
2022-11-27T02:02:49.841Z,2.60
2022-11-27T02:05:25.141Z,2.90
2022-11-27T02:08:00.830Z,2.80
2022-11-27T02:10:41.104Z,2.63
2022-11-27T02:13:16.315Z,3.30
2022-11-27T02:15:54.044Z,3.35
2022-11-27T02:18:30.621Z,2.70
2022-11-27T02:21:09.209Z,2.50
2022-11-27T02:24:13.203Z,2.42
2022-11-27T02:27:14.024Z,2.72
2022-11-27T02:29:49.380Z,2.00
2022-11-27T02:32:27.695Z,2.90
2022-11-27T02:35:04.750Z,2.42
2022-11-27T02:37:40.114Z,2.63
2022-11-27T02:40:15.472Z,2.58
2022-11-27T02:42:50.650Z,2.60
2022-11-27T02:45:31.333Z,2.15
2022-11-27T02:48:03.396Z,2.47
2022-11-27T02:50:37.979Z,1.95
2022-11-27T02:53:14.819Z,2.85
2022-11-27T02:55:48.145Z,2.28
2022-11-27T02:58:23.615Z,2.30
2022-11-27T03:01:00.668Z,2.33
2022-11-27T03:03:39.253Z,2.40
2022-11-27T03:06:15.212Z,2.38
2022-11-27T03:08:54.607Z,2.72
2022-11-27T03:11:25.974Z,2.20
2022-11-27T03:13:59.412Z,2.40
2022-11-27T03:16:41.585Z,2.03
2022-11-27T03:19:20.211Z,2.20
2022-11-27T03:21:55.783Z,2.47
2022-11-27T03:24:27.413Z,1.98
2022-11-27T03:27:00.483Z,2.13
2022-11-27T03:29:36.948Z,2.08
2022-11-27T03:32:10.901Z,2.63
2022-11-27T03:34:42.771Z,2.20
2022-11-27T03:37:14.007Z,1.88
2022-11-27T03:39:45.073Z,2.35
2022-11-27T03:42:22.371Z,2.15
2022-11-27T03:44:58.050Z,2.20
2022-11-27T03:47:42.611Z,2.58
2022-11-27T03:50:23.424Z,1.92
2022-11-27T03:53:04.082Z,2.15
2022-11-27T03:55:43.111Z,2.00
2022-11-27T03:58:19.084Z,2.58
2022-11-27T04:00:53.669Z,2.53
2022-11-27T04:03:32.245Z,2.33
2022-11-27T04:06:03.123Z,2.05
2022-11-27T04:08:34.924Z,2.55
2022-11-27T04:11:05.642Z,2.50
2022-11-27T04:13:37.278Z,2.45
2022-11-27T04:16:08.846Z,2.63
2022-11-27T04:18:42.370Z,3.08
2022-11-27T04:21:13.319Z,2.72
2022-11-27T04:23:44.060Z,3.80
2022-11-27T04:26:15.092Z,2.70
2022-11-27T04:28:45.828Z,3.17
2022-11-27T04:31:17.547Z,2.40
2022-11-27T04:33:50.979Z,3.05
2022-11-27T04:36:22.151Z,3.40
2022-11-27T04:38:52.847Z,3.13
2022-11-27T04:41:23.576Z,2.97
2022-11-27T04:43:54.312Z,2.88
2022-11-27T04:46:25.116Z,3.45
2022-11-27T04:48:58.609Z,3.25
2022-11-27T04:51:29.363Z,3.35
2022-11-27T04:54:00.235Z,3.58
2022-11-27T04:56:31.416Z,3.17
2022-11-27T04:59:02.263Z,3.45
2022-11-27T05:01:32.970Z,4.45
2022-11-27T05:04:06.485Z,3.13
2022-11-27T05:06:37.693Z,3.63
2022-11-27T05:09:08.524Z,3.58
2022-11-27T05:11:39.284Z,3.88
2022-11-27T05:14:20.150Z,3.58
2022-11-27T05:16:52.883Z,3.45
2022-11-27T05:19:27.788Z,3.30
2022-11-27T05:21:59.422Z,3.70
2022-11-27T05:24:32.692Z,4.03
2022-11-27T05:27:03.551Z,3.75
2022-11-27T05:29:34.841Z,3.70
2022-11-27T05:32:05.538Z,4.28
2022-11-27T05:34:39.031Z,3.85
2022-11-27T05:37:12.890Z,3.75
2022-11-27T05:39:47.233Z,3.55
2022-11-27T05:42:17.943Z,3.63
2022-11-27T05:44:51.738Z,3.88
2022-11-27T05:47:26.190Z,3.78
2022-11-27T05:49:59.543Z,3.95
2022-11-27T05:52:30.329Z,3.47
2022-11-27T05:55:01.034Z,3.78
2022-11-27T05:57:31.811Z,4.00
2022-11-27T06:00:02.592Z,3.17
2022-11-27T06:02:37.089Z,3.95
2022-11-27T06:05:12.308Z,3.53
2022-11-27T06:07:43.126Z,3.50
2022-11-27T06:10:14.905Z,3.47
2022-11-27T06:12:45.636Z,3.70
2022-11-27T06:15:16.900Z,3.65
2022-11-27T06:17:47.665Z,4.20
2022-11-27T06:20:24.067Z,3.55
2022-11-27T06:22:54.842Z,4.72
2022-11-27T06:25:25.633Z,4.00
2022-11-27T06:27:56.539Z,3.72
2022-11-27T06:30:27.275Z,3.60
2022-11-27T06:32:58.008Z,3.70
2022-11-27T06:35:32.210Z,3.33
2022-11-27T06:38:02.923Z,3.90
2022-11-27T06:40:33.659Z,3.90
2022-11-27T06:43:04.394Z,4.80
2022-11-27T06:45:35.235Z,3.85
2022-11-27T06:48:06.019Z,3.85
2022-11-27T06:50:39.445Z,3.80
2022-11-27T06:53:10.517Z,4.15
2022-11-27T06:55:41.891Z,4.80
2022-11-27T06:58:12.872Z,4.40
2022-11-27T07:00:44.489Z,4.38
2022-11-27T07:03:15.576Z,4.40
2022-11-27T07:05:49.086Z,4.43
2022-11-27T07:08:19.924Z,4.13
2022-11-27T07:10:50.817Z,4.40
2022-11-27T07:13:21.559Z,4.20
2022-11-27T07:15:52.287Z,3.80
2022-11-27T07:18:23.073Z,3.90
2022-11-27T07:20:57.973Z,3.90
2022-11-27T07:23:29.165Z,3.97
2022-11-27T07:26:01.813Z,4.32
2022-11-27T07:28:33.045Z,4.85
2022-11-27T07:31:04.397Z,3.92
2022-11-27T07:33:35.653Z,4.22
2022-11-27T07:36:14.802Z,4.82
2022-11-27T07:38:46.731Z,4.88
2022-11-27T07:41:18.350Z,4.45
2022-11-27T07:43:49.870Z,4.88
2022-11-27T07:46:23.257Z,4.65
2022-11-27T07:48:54.946Z,4.72
2022-11-27T07:51:28.984Z,5.03
2022-11-27T07:54:00.152Z,4.68
2022-11-27T07:56:31.235Z,4.85
2022-11-27T07:59:02.243Z,4.68
2022-11-27T08:01:33.237Z,4.60
2022-11-27T08:04:04.652Z,4.28
2022-11-27T08:06:38.237Z,6.22
2022-11-27T08:09:10.466Z,4.05
2022-11-27T08:11:43.086Z,4.15
2022-11-27T08:14:17.074Z,4.32
2022-11-27T08:16:48.237Z,3.97
2022-11-27T08:19:19.457Z,3.88
2022-11-27T08:21:53.110Z,4.03
2022-11-27T08:24:23.814Z,4.07
2022-11-27T08:26:55.377Z,3.75
2022-11-27T08:29:31.156Z,3.65
2022-11-27T08:32:05.001Z,3.75
2022-11-27T08:34:36.295Z,3.63
2022-11-27T08:37:10.562Z,3.53
2022-11-27T08:39:41.418Z,4.03
2022-11-27T08:42:12.301Z,3.20
2022-11-27T08:44:43.397Z,3.90
2022-11-27T08:47:15.762Z,3.55
2022-11-27T08:49:47.183Z,3.78
2022-11-27T08:52:21.186Z,4.57
2022-11-27T08:54:57.304Z,5.80
2022-11-27T08:57:28.737Z,4.55
2022-11-27T09:00:00.037Z,5.25
2022-11-27T09:02:31.017Z,5.80
2022-11-27T09:05:03.087Z,4.10
2022-11-27T09:07:37.425Z,4.57
2022-11-27T09:10:09.722Z,5.45
2022-11-27T09:12:43.518Z,4.60
2022-11-27T09:15:16.321Z,4.15
2022-11-27T09:17:47.774Z,3.90
2022-11-27T09:20:19.035Z,3.90
2022-11-27T09:22:52.596Z,4.15
2022-11-27T09:25:23.676Z,3.10
2022-11-27T09:27:55.042Z,3.90
2022-11-27T09:30:26.256Z,4.07
2022-11-27T09:32:57.644Z,3.13
2022-11-27T09:35:29.054Z,3.38
2022-11-27T09:38:03.539Z,3.30
2022-11-27T09:40:39.136Z,3.90
2022-11-27T09:43:11.718Z,3.13
2022-11-27T09:45:48.853Z,3.50
2022-11-27T09:48:26.260Z,3.90
2022-11-27T09:51:03.228Z,4.13
2022-11-27T09:53:45.348Z,3.75
2022-11-27T09:56:19.564Z,3.92
2022-11-27T09:58:53.137Z,4.05
2022-11-27T10:01:36.495Z,6.00
2022-11-27T10:04:16.619Z,4.72
2022-11-27T10:07:03.150Z,4.20
2022-11-27T10:09:45.932Z,4.15
2022-11-27T10:12:25.218Z,3.83
2022-11-27T10:15:07.774Z,3.08
2022-11-27T10:17:46.094Z,3.67
2022-11-27T10:20:29.012Z,4.03
2022-11-27T10:23:06.671Z,3.80
2022-11-27T10:25:45.205Z,3.33
2022-11-27T10:28:29.616Z,5.82
2022-11-27T10:31:05.515Z,3.75
2022-11-27T10:33:44.227Z,4.72
2022-11-27T10:36:20.853Z,4.18
2022-11-27T10:38:53.052Z,3.08
2022-11-27T10:41:49.660Z,3.50
2022-11-27T10:44:31.045Z,3.65
2022-11-27T10:47:06.049Z,4.82
2022-11-27T10:49:38.867Z,7.35
2022-11-27T10:52:15.013Z,5.30
2022-11-27T10:54:48.623Z,7.97
2022-11-27T10:57:38.917Z,12.05
2022-11-27T11:00:15.680Z,5.22
2022-11-27T11:06:04.783Z,4.18
2022-11-27T11:08:21.552Z,6.65
2022-11-27T11:10:57.461Z,19.75
2022-11-27T11:13:33.226Z,6.80
2022-11-27T11:16:10.962Z,4.70
2022-11-27T11:18:49.361Z,5.10
2022-11-27T11:21:23.224Z,4.95
2022-11-27T11:24:01.758Z,6.38
2022-11-27T11:26:36.557Z,4.90
2022-11-27T11:29:25.889Z,5.50
2022-11-27T11:32:02.115Z,4.68
2022-11-27T11:34:34.596Z,5.65
2022-11-27T11:37:09.036Z,4.70
2022-11-27T11:39:48.904Z,6.05
2022-11-27T11:42:24.292Z,8.60
2022-11-27T11:45:04.770Z,8.93
2022-11-27T11:47:37.181Z,8.13
2022-11-27T11:50:10.058Z,10.40
2022-11-27T11:52:57.458Z,8.05
2022-11-27T11:55:33.755Z,7.70
2022-11-27T11:58:19.459Z,10.57
2022-11-27T12:01:29.243Z,6.88
2022-11-27T12:04:09.612Z,5.85
2022-11-27T12:06:55.577Z,6.47
2022-11-27T12:09:38.787Z,6.68
2022-11-27T12:12:21.948Z,6.22
2022-11-27T12:15:00.707Z,10.75
2022-11-27T12:17:54.346Z,6.90
2022-11-27T12:20:30.502Z,7.82
2022-11-27T12:23:29.169Z,8.13
2022-11-27T12:26:11.382Z,6.32
2022-11-27T12:29:22.885Z,7.20
2022-11-27T12:32:10.135Z,6.22
2022-11-27T12:37:34.202Z,6.53
2022-11-27T12:40:23.208Z,7.03
2022-11-27T12:43:07.297Z,7.35
2022-11-27T12:45:44.841Z,8.27
2022-11-27T12:48:23.486Z,8.88
2022-11-27T12:51:01.378Z,7.00
2022-11-27T12:53:40.223Z,8.02
2022-11-27T12:56:17.262Z,7.53
2022-11-27T12:58:52.266Z,7.47
2022-11-27T13:01:29.769Z,8.25
2022-11-27T13:04:15.927Z,7.82
2022-11-27T13:06:58.937Z,8.40
2022-11-27T13:09:46.384Z,9.10
2022-11-27T13:12:26.596Z,9.02
2022-11-27T13:15:04.257Z,7.95
2022-11-27T13:17:41.583Z,9.13
2022-11-27T13:20:20.629Z,9.07
2022-11-27T13:22:55.620Z,11.20
2022-11-27T13:25:28.573Z,12.05
2022-11-27T13:28:01.571Z,9.77
2022-11-27T13:30:37.909Z,7.07
2022-11-27T13:33:09.578Z,11.43
2022-11-27T13:35:45.990Z,9.90
2022-11-27T13:38:26.920Z,16.65
2022-11-27T13:40:59.629Z,7.82
2022-11-27T13:43:33.488Z,8.85
2022-11-27T13:46:08.043Z,8.40
2022-11-27T13:48:42.349Z,14.30
2022-11-27T13:51:14.876Z,12.48
2022-11-27T13:53:56.074Z,8.60
2022-11-27T13:56:34.975Z,9.57
2022-11-27T13:59:18.405Z,8.18
2022-11-27T14:02:02.240Z,10.52
2022-11-27T14:04:35.505Z,8.82
2022-11-27T14:07:11.492Z,8.80
2022-11-27T14:09:47.941Z,7.82
2022-11-27T14:12:27.356Z,7.65
2022-11-27T14:15:07.910Z,8.15
2022-11-27T14:17:44.578Z,9.52
2022-11-27T14:20:33.572Z,11.23
2022-11-27T14:23:12.494Z,8.95
2022-11-27T14:25:46.820Z,7.90
2022-11-27T14:28:21.986Z,8.23
2022-11-27T14:30:55.663Z,7.68
2022-11-27T14:33:28.890Z,9.68
2022-11-27T14:36:01.887Z,7.53
2022-11-27T14:38:35.285Z,8.70
2022-11-27T14:41:20.273Z,8.43
2022-11-27T14:43:52.277Z,10.48
2022-11-27T14:46:25.907Z,7.82
2022-11-27T14:48:58.616Z,9.27
2022-11-27T14:51:33.041Z,8.35
2022-11-27T14:54:07.817Z,7.97
2022-11-27T14:56:44.928Z,11.07
2022-11-27T15:02:01.370Z,8.80
2022-11-27T15:04:37.773Z,9.00
2022-11-27T15:07:11.023Z,10.00
2022-11-27T15:09:49.120Z,9.73
2022-11-27T15:12:27.746Z,9.80
2022-11-27T15:15:02.231Z,9.13
2022-11-27T15:17:37.065Z,8.75
2022-11-27T15:20:17.729Z,10.52
2022-11-27T15:22:53.505Z,10.15
2022-11-27T15:25:40.974Z,9.35
2022-11-27T15:28:37.609Z,10.48
2022-11-27T15:31:27.939Z,12.00
2022-11-27T15:34:07.318Z,9.90
2022-11-27T15:36:42.316Z,10.82
2022-11-27T15:39:24.227Z,10.00
2022-11-27T15:41:58.332Z,9.48
2022-11-27T15:44:35.770Z,9.55
2022-11-27T15:47:09.781Z,10.57
2022-11-27T15:49:40.837Z,9.63
2022-11-27T15:52:12.541Z,8.70
2022-11-27T15:54:44.245Z,10.13
2022-11-27T15:57:17.969Z,9.43
2022-11-27T15:59:51.656Z,9.82
2022-11-27T16:02:23.519Z,10.35
2022-11-27T16:04:54.618Z,9.95
2022-11-27T16:07:27.057Z,10.55
2022-11-27T16:09:58.020Z,9.40
2022-11-27T16:12:29.719Z,9.23
2022-11-27T16:15:04.050Z,10.10
2022-11-27T16:17:35.129Z,14.50
2022-11-27T16:20:07.081Z,10.05
2022-11-27T16:22:39.535Z,9.13
2022-11-27T16:25:12.066Z,10.35
2022-11-27T16:27:43.435Z,11.20
2022-11-27T16:30:20.615Z,11.85
2022-11-27T16:32:53.070Z,10.13
2022-11-27T16:35:30.738Z,11.23
2022-11-27T16:38:03.020Z,10.60
2022-11-27T16:40:35.166Z,10.77
2022-11-27T16:43:07.239Z,10.90
2022-11-27T16:45:42.792Z,12.13
2022-11-27T16:48:14.421Z,13.07
2022-11-27T16:50:46.950Z,10.93
2022-11-27T16:53:19.227Z,10.48
2022-11-27T16:55:52.300Z,9.40
2022-11-27T16:58:24.701Z,10.45
2022-11-27T17:01:02.953Z,8.80
2022-11-27T17:03:35.594Z,9.95
2022-11-27T17:06:12.114Z,9.50
2022-11-27T17:08:44.205Z,10.20
2022-11-27T17:11:17.627Z,8.25
2022-11-27T17:13:51.397Z,5.40
2022-11-27T17:16:30.179Z,4.45
2022-11-27T17:19:06.263Z,3.80
2022-11-27T17:21:39.155Z,4.38
2022-11-27T17:24:15.230Z,3.75
2022-11-27T17:26:51.634Z,2.95
2022-11-27T17:29:24.526Z,2.20
2022-11-27T17:31:58.534Z,3.58
2022-11-27T17:34:33.659Z,4.00
2022-11-27T17:37:05.768Z,4.25
2022-11-27T17:39:38.681Z,5.80
2022-11-27T17:42:13.358Z,6.28
2022-11-27T17:44:47.768Z,3.60
2022-11-27T17:47:22.863Z,5.15
2022-11-27T17:49:54.591Z,4.30
2022-11-27T17:52:26.427Z,3.05
2022-11-27T17:54:59.171Z,4.07
2022-11-27T17:57:31.305Z,4.05
2022-11-27T18:00:02.571Z,5.97
2022-11-27T18:02:37.529Z,3.70
2022-11-27T18:05:10.934Z,3.08
2022-11-27T18:07:43.743Z,3.30
2022-11-27T18:10:15.998Z,4.25
2022-11-27T18:12:47.876Z,6.78
2022-11-27T18:15:22.723Z,5.18
2022-11-27T18:18:01.647Z,4.60
2022-11-27T18:20:33.521Z,5.93
2022-11-27T18:23:07.882Z,7.53
2022-11-27T18:25:48.819Z,13.50
2022-11-27T18:28:20.912Z,14.40
2022-11-27T18:30:52.638Z,14.68
2022-11-27T18:33:27.022Z,10.20
2022-11-27T18:36:02.301Z,10.70
2022-11-27T18:38:35.310Z,10.82
2022-11-27T18:41:12.339Z,7.10
2022-11-27T18:43:45.289Z,6.72
2022-11-27T18:46:20.491Z,5.43
2022-11-27T18:48:55.846Z,7.05
2022-11-27T18:51:28.753Z,17.15
2022-11-27T18:54:03.571Z,17.13
2022-11-27T18:56:37.494Z,10.50
2022-11-27T18:59:11.778Z,11.38
2022-11-27T19:01:45.310Z,12.88
2022-11-27T19:04:19.735Z,11.32
2022-11-27T19:06:52.066Z,7.38
2022-11-27T19:09:24.774Z,4.78
2022-11-27T19:11:59.821Z,4.32
2022-11-27T19:14:33.168Z,4.45
2022-11-27T19:17:06.929Z,3.90
2022-11-27T19:19:57.449Z,5.43
2022-11-27T19:22:29.994Z,11.40
2022-11-27T19:25:02.861Z,9.70
2022-11-27T19:27:38.801Z,9.23
2022-11-27T19:30:12.049Z,9.30
2022-11-27T19:32:43.633Z,12.98
2022-11-27T19:35:22.436Z,12.75
2022-11-27T19:37:55.148Z,10.35
2022-11-27T19:40:27.777Z,8.55
2022-11-27T19:43:01.177Z,9.88
2022-11-27T19:45:33.999Z,9.63
2022-11-27T19:48:05.675Z,10.57
2022-11-27T19:50:40.232Z,10.95
2022-11-27T19:53:13.049Z,11.70
2022-11-27T19:55:46.183Z,11.68
2022-11-27T19:58:17.708Z,11.40
2022-11-27T20:00:50.137Z,11.35
2022-11-27T20:03:22.384Z,11.07
2022-11-27T20:06:06.210Z,10.10
2022-11-27T20:08:38.373Z,10.52
2022-11-27T20:11:13.297Z,10.85
2022-11-27T20:13:46.856Z,12.68
2022-11-27T20:16:21.614Z,13.10
2022-11-27T20:18:54.334Z,11.02
2022-11-27T20:21:31.742Z,12.57
2022-11-27T20:24:03.798Z,11.75
2022-11-27T20:26:41.288Z,12.30
2022-11-27T20:29:16.104Z,12.10
2022-11-27T20:31:49.066Z,12.90
2022-11-27T20:34:26.296Z,12.82
2022-11-27T20:37:00.645Z,13.43
2022-11-27T20:39:34.971Z,14.35
2022-11-27T20:42:07.934Z,14.88
2022-11-27T20:44:40.519Z,18.60
2022-11-27T20:47:13.309Z,26.17
2022-11-27T20:49:45.456Z,23.25
2022-11-27T20:52:20.042Z,23.40
2022-11-27T20:54:52.423Z,19.67
2022-11-27T20:57:24.035Z,18.55
2022-11-27T20:59:56.092Z,19.50
2022-11-27T21:02:28.391Z,21.95
2022-11-27T21:05:01.390Z,17.60
2022-11-27T21:07:39.283Z,16.50
2022-11-27T21:10:13.283Z,16.67
2022-11-27T21:12:45.320Z,18.42
2022-11-27T21:15:17.503Z,17.30
2022-11-27T21:17:49.246Z,15.40
2022-11-27T21:20:21.336Z,15.93
2022-11-27T21:22:56.511Z,16.25
2022-11-27T21:25:28.356Z,16.33
2022-11-27T21:28:00.203Z,16.67
2022-11-27T21:30:33.615Z,16.20
2022-11-27T21:33:06.649Z,15.30
2022-11-27T21:35:40.488Z,12.02
2022-11-27T21:38:16.369Z,14.15
2022-11-27T21:40:49.615Z,16.42
2022-11-27T21:43:21.843Z,13.35
2022-11-27T21:45:54.247Z,10.90
2022-11-27T21:48:27.138Z,9.10
2022-11-27T21:51:04.842Z,13.30
2022-11-27T21:53:40.266Z,12.45
2022-11-27T21:56:16.144Z,11.45
2022-11-27T21:58:49.619Z,8.80
2022-11-27T22:01:23.944Z,9.35
2022-11-27T22:03:57.734Z,14.88
2022-11-27T22:06:33.768Z,19.55
2022-11-27T22:09:14.745Z,17.88
2022-11-27T22:11:46.965Z,14.23
2022-11-27T22:14:20.494Z,12.63
2022-11-27T22:16:51.999Z,11.40
2022-11-27T22:19:23.993Z,10.80
2022-11-27T22:21:55.082Z,14.40
2022-11-27T22:24:31.264Z,13.85
2022-11-27T22:27:04.219Z,12.15
2022-11-27T22:29:35.455Z,12.07
2022-11-27T22:32:10.218Z,12.00
2022-11-27T22:34:42.545Z,13.43
2022-11-27T22:37:14.093Z,12.45
2022-11-27T22:39:48.885Z,11.32
2022-11-27T22:42:20.446Z,10.20
2022-11-27T22:44:51.968Z,9.35
2022-11-27T22:47:23.387Z,10.18
2022-11-27T22:49:55.114Z,10.90
2022-11-27T22:52:28.079Z,13.80
2022-11-27T22:55:02.572Z,12.15
2022-11-27T22:57:36.581Z,13.40
2022-11-27T23:00:11.920Z,14.20
2022-11-27T23:02:43.692Z,13.20
2022-11-27T23:05:17.056Z,18.30
2022-11-27T23:07:48.418Z,15.15
2022-11-27T23:10:22.957Z,13.70
2022-11-27T23:12:55.201Z,11.05
2022-11-27T23:15:27.288Z,13.38
2022-11-27T23:17:58.444Z,13.05
2022-11-27T23:20:30.520Z,13.50
2022-11-27T23:23:01.675Z,15.60
2022-11-27T23:25:36.020Z,13.77
2022-11-27T23:28:07.489Z,18.75
2022-11-27T23:30:39.354Z,16.95
2022-11-27T23:33:10.428Z,15.25
2022-11-27T23:35:41.627Z,15.48
2022-11-27T23:38:12.848Z,13.23
2022-11-27T23:40:47.111Z,12.57
2022-11-27T23:43:19.028Z,13.98
2022-11-27T23:45:50.289Z,12.45
2022-11-27T23:48:21.532Z,11.80
2022-11-27T23:50:53.102Z,11.75
2022-11-27T23:53:24.923Z,12.27
2022-11-27T23:56:05.796Z,13.00
2022-11-27T23:58:37.140Z,12.93
